sensor_id;sensor_type;location;lat;lon;timestamp;pressure;altitude;pressure_sealevel;temperature;humidity
50011;BME280;35899;50.352;19.390;2022-07-10T00:00:30;97879.63;;;14.16;71.30
50011;BME280;35899;50.352;19.390;2022-07-10T00:02:59;97873.03;;;14.12;71.51
50011;BME280;35899;50.352;19.390;2022-07-10T00:05:26;97871.64;;;14.08;71.58
50011;BME280;35899;50.352;19.390;2022-07-10T00:07:54;97875.68;;;14.06;71.73
50011;BME280;35899;50.352;19.390;2022-07-10T00:10:22;97871.77;;;14.06;71.91
50011;BME280;35899;50.352;19.390;2022-07-10T00:12:50;97873.35;;;14.03;71.99
50011;BME280;35899;50.352;19.390;2022-07-10T00:15:18;97869.08;;;14.02;72.01
50011;BME280;35899;50.352;19.390;2022-07-10T00:17:46;97864.47;;;14.00;72.06
50011;BME280;35899;50.352;19.390;2022-07-10T00:20:15;97864.95;;;14.00;72.06
50011;BME280;35899;50.352;19.390;2022-07-10T00:22:43;97870.30;;;13.98;72.11
50011;BME280;35899;50.352;19.390;2022-07-10T00:25:11;97857.73;;;13.98;72.15
50011;BME280;35899;50.352;19.390;2022-07-10T00:27:39;97855.58;;;13.97;72.18
50011;BME280;35899;50.352;19.390;2022-07-10T00:30:08;97858.20;;;13.97;72.18
50011;BME280;35899;50.352;19.390;2022-07-10T00:32:36;97858.39;;;13.90;71.80
50011;BME280;35899;50.352;19.390;2022-07-10T00:35:05;97867.60;;;13.79;71.36
50011;BME280;35899;50.352;19.390;2022-07-10T00:37:33;97855.58;;;13.66;71.49
50011;BME280;35899;50.352;19.390;2022-07-10T00:40:00;97855.61;;;13.61;71.72
50011;BME280;35899;50.352;19.390;2022-07-10T00:42:27;97850.27;;;13.62;72.23
50011;BME280;35899;50.352;19.390;2022-07-10T00:44:54;97849.42;;;13.67;72.57
50011;BME280;35899;50.352;19.390;2022-07-10T00:47:21;97844.28;;;13.72;72.72
50011;BME280;35899;50.352;19.390;2022-07-10T00:49:49;97842.25;;;13.75;72.72
50011;BME280;35899;50.352;19.390;2022-07-10T00:52:17;97842.16;;;13.71;72.45
50011;BME280;35899;50.352;19.390;2022-07-10T00:54:47;97838.63;;;13.66;72.54
50011;BME280;35899;50.352;19.390;2022-07-10T00:57:17;97835.28;;;13.70;72.86
50011;BME280;35899;50.352;19.390;2022-07-10T00:59:45;97836.91;;;13.77;72.96
50011;BME280;35899;50.352;19.390;2022-07-10T01:02:14;97830.19;;;13.84;73.02
50011;BME280;35899;50.352;19.390;2022-07-10T01:04:46;97825.08;;;13.88;73.15
50011;BME280;35899;50.352;19.390;2022-07-10T01:07:13;97821.86;;;13.90;73.30
50011;BME280;35899;50.352;19.390;2022-07-10T01:09:42;97822.55;;;13.92;73.33
50011;BME280;35899;50.352;19.390;2022-07-10T01:12:11;97818.16;;;13.93;73.40
50011;BME280;35899;50.352;19.390;2022-07-10T01:14:39;97811.63;;;13.93;73.29
50011;BME280;35899;50.352;19.390;2022-07-10T01:17:07;97809.72;;;13.95;73.28
50011;BME280;35899;50.352;19.390;2022-07-10T01:19:35;97802.58;;;13.97;73.38
50011;BME280;35899;50.352;19.390;2022-07-10T01:22:02;97797.92;;;14.00;73.51
50011;BME280;35899;50.352;19.390;2022-07-10T01:24:30;97800.13;;;14.05;73.52
50011;BME280;35899;50.352;19.390;2022-07-10T01:26:57;97795.34;;;14.10;73.55
50011;BME280;35899;50.352;19.390;2022-07-10T01:29:24;97792.35;;;14.15;73.61
50011;BME280;35899;50.352;19.390;2022-07-10T01:31:51;97791.45;;;14.20;73.59
50011;BME280;35899;50.352;19.390;2022-07-10T01:34:18;97792.50;;;14.23;73.64
50011;BME280;35899;50.352;19.390;2022-07-10T01:36:45;97792.24;;;14.26;73.65
50011;BME280;35899;50.352;19.390;2022-07-10T01:39:13;97795.18;;;14.27;73.74
50011;BME280;35899;50.352;19.390;2022-07-10T01:41:40;97792.44;;;14.28;73.86
50011;BME280;35899;50.352;19.390;2022-07-10T01:44:07;97793.27;;;14.29;73.76
50011;BME280;35899;50.352;19.390;2022-07-10T01:46:34;97788.40;;;14.30;73.65
50011;BME280;35899;50.352;19.390;2022-07-10T01:49:02;97786.61;;;14.31;73.63
50011;BME280;35899;50.352;19.390;2022-07-10T01:51:29;97782.20;;;14.31;73.63
50011;BME280;35899;50.352;19.390;2022-07-10T01:53:56;97785.91;;;14.28;73.61
50011;BME280;35899;50.352;19.390;2022-07-10T01:56:23;97783.92;;;14.26;73.79
50011;BME280;35899;50.352;19.390;2022-07-10T01:58:50;97781.80;;;14.26;73.82
50011;BME280;35899;50.352;19.390;2022-07-10T02:01:17;97777.03;;;14.25;73.88
50011;BME280;35899;50.352;19.390;2022-07-10T02:03:44;97774.42;;;14.25;73.91
50011;BME280;35899;50.352;19.390;2022-07-10T02:06:29;97768.75;;;14.26;73.94
50011;BME280;35899;50.352;19.390;2022-07-10T02:08:57;97771.20;;;14.27;74.03
50011;BME280;35899;50.352;19.390;2022-07-10T02:11:24;97767.16;;;14.29;74.14
50011;BME280;35899;50.352;19.390;2022-07-10T02:13:51;97764.91;;;14.30;74.23
50011;BME280;35899;50.352;19.390;2022-07-10T02:16:18;97755.27;;;14.31;74.12
50011;BME280;35899;50.352;19.390;2022-07-10T02:18:45;97757.07;;;14.30;74.14
50011;BME280;35899;50.352;19.390;2022-07-10T02:21:12;97760.01;;;14.31;74.19
50011;BME280;35899;50.352;19.390;2022-07-10T02:23:39;97758.38;;;14.30;74.21
50011;BME280;35899;50.352;19.390;2022-07-10T02:26:07;97755.77;;;14.30;74.38
50011;BME280;35899;50.352;19.390;2022-07-10T02:28:34;97753.48;;;14.31;74.36
50011;BME280;35899;50.352;19.390;2022-07-10T02:31:01;97751.42;;;14.25;74.35
50011;BME280;35899;50.352;19.390;2022-07-10T02:33:28;97746.33;;;14.23;74.47
50011;BME280;35899;50.352;19.390;2022-07-10T02:35:55;97753.47;;;14.21;74.54
50011;BME280;35899;50.352;19.390;2022-07-10T02:38:22;97749.36;;;14.19;74.64
50011;BME280;35899;50.352;19.390;2022-07-10T02:40:49;97745.44;;;14.19;74.93
50011;BME280;35899;50.352;19.390;2022-07-10T02:43:16;97743.65;;;14.19;75.02
50011;BME280;35899;50.352;19.390;2022-07-10T02:45:44;97744.46;;;14.20;75.09
50011;BME280;35899;50.352;19.390;2022-07-10T02:48:11;97739.05;;;14.17;75.15
50011;BME280;35899;50.352;19.390;2022-07-10T02:50:38;97733.70;;;14.19;75.30
50011;BME280;35899;50.352;19.390;2022-07-10T02:53:05;97732.10;;;14.22;75.39
50011;BME280;35899;50.352;19.390;2022-07-10T02:55:32;97732.95;;;14.22;75.40
50011;BME280;35899;50.352;19.390;2022-07-10T02:58:00;97736.38;;;14.23;75.53
50011;BME280;35899;50.352;19.390;2022-07-10T03:00:27;97730.53;;;14.25;75.58
50011;BME280;35899;50.352;19.390;2022-07-10T03:02:55;97725.05;;;14.28;75.75
50011;BME280;35899;50.352;19.390;2022-07-10T03:05:23;97721.14;;;14.28;75.74
50011;BME280;35899;50.352;19.390;2022-07-10T03:07:50;97726.07;;;14.31;75.88
50011;BME280;35899;50.352;19.390;2022-07-10T03:10:18;97724.63;;;14.33;75.94
50011;BME280;35899;50.352;19.390;2022-07-10T03:12:45;97727.11;;;14.34;75.98
50011;BME280;35899;50.352;19.390;2022-07-10T03:15:13;97724.50;;;14.34;76.00
50011;BME280;35899;50.352;19.390;2022-07-10T03:17:41;97726.50;;;14.36;75.98
50011;BME280;35899;50.352;19.390;2022-07-10T03:20:08;97723.63;;;14.39;76.10
50011;BME280;35899;50.352;19.390;2022-07-10T03:22:37;97718.11;;;14.42;76.09
50011;BME280;35899;50.352;19.390;2022-07-10T03:25:05;97721.41;;;14.44;76.06
50011;BME280;35899;50.352;19.390;2022-07-10T03:27:33;97714.94;;;14.48;76.12
50011;BME280;35899;50.352;19.390;2022-07-10T03:30:00;97717.65;;;14.53;76.05
50011;BME280;35899;50.352;19.390;2022-07-10T03:32:27;97717.74;;;14.57;75.90
50011;BME280;35899;50.352;19.390;2022-07-10T03:34:54;97710.10;;;14.59;75.91
50011;BME280;35899;50.352;19.390;2022-07-10T03:37:21;97712.77;;;14.63;75.88
50011;BME280;35899;50.352;19.390;2022-07-10T03:39:48;97707.97;;;14.69;75.87
50011;BME280;35899;50.352;19.390;2022-07-10T03:42:15;97710.16;;;14.73;75.79
50011;BME280;35899;50.352;19.390;2022-07-10T03:44:42;97709.27;;;14.78;75.73
50011;BME280;35899;50.352;19.390;2022-07-10T03:47:09;97703.41;;;14.80;75.50
50011;BME280;35899;50.352;19.390;2022-07-10T03:49:37;97700.80;;;14.80;75.53
50011;BME280;35899;50.352;19.390;2022-07-10T03:52:08;97702.52;;;14.85;75.55
50011;BME280;35899;50.352;19.390;2022-07-10T03:54:35;97704.70;;;14.90;75.47
50011;BME280;35899;50.352;19.390;2022-07-10T03:57:03;97717.42;;;14.99;75.54
50011;BME280;35899;50.352;19.390;2022-07-10T03:59:49;97720.58;;;15.02;75.66
50011;BME280;35899;50.352;19.390;2022-07-10T04:02:16;97719.11;;;15.04;75.43
50011;BME280;35899;50.352;19.390;2022-07-10T04:04:43;97715.90;;;15.06;75.30
50011;BME280;35899;50.352;19.390;2022-07-10T04:07:10;97715.41;;;15.07;75.11
50011;BME280;35899;50.352;19.390;2022-07-10T04:09:38;97717.27;;;15.10;75.28
50011;BME280;35899;50.352;19.390;2022-07-10T04:12:06;97718.56;;;15.10;75.22
50011;BME280;35899;50.352;19.390;2022-07-10T04:14:33;97723.39;;;15.05;75.20
50011;BME280;35899;50.352;19.390;2022-07-10T04:17:00;97718.73;;;14.99;75.34
50011;BME280;35899;50.352;19.390;2022-07-10T04:19:27;97719.63;;;14.94;75.50
50011;BME280;35899;50.352;19.390;2022-07-10T04:21:54;97716.53;;;14.84;75.59
50011;BME280;35899;50.352;19.390;2022-07-10T04:24:21;97711.17;;;14.86;75.84
50011;BME280;35899;50.352;19.390;2022-07-10T04:26:48;97718.94;;;14.92;75.94
50011;BME280;35899;50.352;19.390;2022-07-10T04:29:15;97723.48;;;14.90;75.90
50011;BME280;35899;50.352;19.390;2022-07-10T04:31:42;97724.59;;;14.87;75.99
50011;BME280;35899;50.352;19.390;2022-07-10T04:34:09;97723.36;;;14.81;76.02
50011;BME280;35899;50.352;19.390;2022-07-10T04:36:37;97727.55;;;14.78;76.18
50011;BME280;35899;50.352;19.390;2022-07-10T04:39:04;97730.59;;;14.74;76.28
50011;BME280;35899;50.352;19.390;2022-07-10T04:41:31;97730.37;;;14.71;76.33
50011;BME280;35899;50.352;19.390;2022-07-10T04:43:58;97723.78;;;14.67;76.42
50011;BME280;35899;50.352;19.390;2022-07-10T04:46:25;97724.66;;;14.62;76.56
50011;BME280;35899;50.352;19.390;2022-07-10T04:48:52;97724.34;;;14.61;76.77
50011;BME280;35899;50.352;19.390;2022-07-10T04:51:19;97735.41;;;14.59;76.77
50011;BME280;35899;50.352;19.390;2022-07-10T04:53:47;97732.34;;;14.54;76.84
50011;BME280;35899;50.352;19.390;2022-07-10T04:56:14;97733.32;;;14.53;76.84
50011;BME280;35899;50.352;19.390;2022-07-10T04:58:41;97727.31;;;14.46;76.87
50011;BME280;35899;50.352;19.390;2022-07-10T05:01:08;97728.62;;;14.46;76.95
50011;BME280;35899;50.352;19.390;2022-07-10T05:03:35;97723.82;;;14.52;77.16
50011;BME280;35899;50.352;19.390;2022-07-10T05:06:02;97723.30;;;14.58;76.95
50011;BME280;35899;50.352;19.390;2022-07-10T05:08:29;97720.22;;;14.68;76.96
50011;BME280;35899;50.352;19.390;2022-07-10T05:10:56;97719.58;;;14.80;76.86
50011;BME280;35899;50.352;19.390;2022-07-10T05:13:23;97718.12;;;14.91;76.65
50011;BME280;35899;50.352;19.390;2022-07-10T05:15:50;97722.55;;;15.14;76.33
50011;BME280;35899;50.352;19.390;2022-07-10T05:18:17;97719.28;;;15.40;75.88
50011;BME280;35899;50.352;19.390;2022-07-10T05:20:44;97718.69;;;15.70;75.62
50011;BME280;35899;50.352;19.390;2022-07-10T05:23:13;97717.82;;;16.07;75.29
50011;BME280;35899;50.352;19.390;2022-07-10T05:25:41;97713.05;;;16.34;75.03
50011;BME280;35899;50.352;19.390;2022-07-10T05:28:08;97713.75;;;16.40;74.99
50011;BME280;35899;50.352;19.390;2022-07-10T05:30:35;97720.27;;;16.36;74.12
50011;BME280;35899;50.352;19.390;2022-07-10T05:33:02;97731.66;;;16.31;73.92
50011;BME280;35899;50.352;19.390;2022-07-10T05:35:29;97726.98;;;16.20;73.78
50011;BME280;35899;50.352;19.390;2022-07-10T05:37:56;97730.81;;;16.12;73.86
50011;BME280;35899;50.352;19.390;2022-07-10T05:40:23;97725.19;;;16.21;73.61
50011;BME280;35899;50.352;19.390;2022-07-10T05:42:51;97725.04;;;16.40;73.59
50011;BME280;35899;50.352;19.390;2022-07-10T05:45:18;97727.23;;;16.67;72.95
50011;BME280;35899;50.352;19.390;2022-07-10T05:47:45;97720.42;;;16.74;73.14
50011;BME280;35899;50.352;19.390;2022-07-10T05:50:12;97729.55;;;17.06;72.90
50011;BME280;35899;50.352;19.390;2022-07-10T05:52:39;97727.77;;;17.37;71.68
50011;BME280;35899;50.352;19.390;2022-07-10T05:55:08;97725.94;;;17.33;70.61
50011;BME280;35899;50.352;19.390;2022-07-10T05:57:36;97729.78;;;17.47;70.16
50011;BME280;35899;50.352;19.390;2022-07-10T06:00:05;97732.06;;;17.76;69.69
50011;BME280;35899;50.352;19.390;2022-07-10T06:02:39;97735.28;;;18.01;69.34
50011;BME280;35899;50.352;19.390;2022-07-10T06:05:07;97732.41;;;18.20;69.11
50011;BME280;35899;50.352;19.390;2022-07-10T06:07:35;97729.42;;;18.11;67.54
50011;BME280;35899;50.352;19.390;2022-07-10T06:10:04;97735.91;;;17.86;67.41
50011;BME280;35899;50.352;19.390;2022-07-10T06:12:32;97730.43;;;17.84;67.71
50011;BME280;35899;50.352;19.390;2022-07-10T06:14:59;97728.41;;;18.04;67.01
50011;BME280;35899;50.352;19.390;2022-07-10T06:17:26;97720.17;;;17.98;66.60
50011;BME280;35899;50.352;19.390;2022-07-10T06:19:53;97726.66;;;18.25;67.05
50011;BME280;35899;50.352;19.390;2022-07-10T06:22:21;97730.63;;;18.45;66.31
50011;BME280;35899;50.352;19.390;2022-07-10T06:25:02;97731.79;;;18.55;66.34
50011;BME280;35899;50.352;19.390;2022-07-10T06:27:31;97738.52;;;18.41;66.38
50011;BME280;35899;50.352;19.390;2022-07-10T06:29:59;97736.30;;;18.16;65.87
50011;BME280;35899;50.352;19.390;2022-07-10T06:32:27;97731.55;;;17.73;64.99
50011;BME280;35899;50.352;19.390;2022-07-10T06:34:55;97735.78;;;17.66;65.30
50011;BME280;35899;50.352;19.390;2022-07-10T06:37:22;97729.53;;;17.67;65.44
50011;BME280;35899;50.352;19.390;2022-07-10T06:39:49;97730.31;;;17.85;65.81
50011;BME280;35899;50.352;19.390;2022-07-10T06:42:16;97731.70;;;18.14;65.64
50011;BME280;35899;50.352;19.390;2022-07-10T06:44:45;97727.46;;;18.21;64.56
50011;BME280;35899;50.352;19.390;2022-07-10T06:47:15;97727.81;;;18.30;64.34
50011;BME280;35899;50.352;19.390;2022-07-10T06:50:04;97723.06;;;18.42;64.31
50011;BME280;35899;50.352;19.390;2022-07-10T06:52:33;97739.17;;;18.43;62.12
50011;BME280;35899;50.352;19.390;2022-07-10T06:55:01;97734.08;;;18.42;61.97
50011;BME280;35899;50.352;19.390;2022-07-10T06:57:29;97733.27;;;18.41;61.62
50011;BME280;35899;50.352;19.390;2022-07-10T06:59:57;97730.09;;;18.25;60.88
50011;BME280;35899;50.352;19.390;2022-07-10T07:02:24;97718.58;;;18.14;61.59
50011;BME280;35899;50.352;19.390;2022-07-10T07:04:51;97714.33;;;18.25;62.46
50011;BME280;35899;50.352;19.390;2022-07-10T07:07:18;97720.44;;;18.46;62.42
50011;BME280;35899;50.352;19.390;2022-07-10T07:09:45;97734.91;;;18.71;60.51
50011;BME280;35899;50.352;19.390;2022-07-10T07:12:14;97735.09;;;18.78;59.05
50011;BME280;35899;50.352;19.390;2022-07-10T07:14:41;97733.80;;;18.86;58.78
50011;BME280;35899;50.352;19.390;2022-07-10T07:17:09;97740.03;;;19.01;59.22
50011;BME280;35899;50.352;19.390;2022-07-10T07:19:38;97736.38;;;19.23;58.89
50011;BME280;35899;50.352;19.390;2022-07-10T07:22:24;97742.63;;;19.38;58.72
50011;BME280;35899;50.352;19.390;2022-07-10T07:25:11;97748.19;;;19.43;58.94
50011;BME280;35899;50.352;19.390;2022-07-10T07:27:38;97743.27;;;19.44;58.15
50011;BME280;35899;50.352;19.390;2022-07-10T07:30:07;97749.50;;;19.43;57.55
50011;BME280;35899;50.352;19.390;2022-07-10T07:32:41;97742.79;;;19.37;56.66
50011;BME280;35899;50.352;19.390;2022-07-10T07:35:11;97743.63;;;19.17;56.50
50011;BME280;35899;50.352;19.390;2022-07-10T07:37:41;97737.58;;;19.08;56.65
50011;BME280;35899;50.352;19.390;2022-07-10T07:40:11;97745.97;;;18.87;55.74
50011;BME280;35899;50.352;19.390;2022-07-10T07:42:40;97754.79;;;18.53;56.40
50011;BME280;35899;50.352;19.390;2022-07-10T07:45:09;97758.13;;;18.12;56.46
50011;BME280;35899;50.352;19.390;2022-07-10T07:47:46;97762.19;;;17.68;56.94
50011;BME280;35899;50.352;19.390;2022-07-10T07:50:20;97767.39;;;17.30;57.13
50011;BME280;35899;50.352;19.390;2022-07-10T07:52:48;97771.12;;;17.01;57.94
50011;BME280;35899;50.352;19.390;2022-07-10T07:55:17;97767.34;;;16.99;58.62
50011;BME280;35899;50.352;19.390;2022-07-10T07:57:46;97766.66;;;17.15;59.06
50011;BME280;35899;50.352;19.390;2022-07-10T08:00:15;97762.55;;;17.43;59.22
50011;BME280;35899;50.352;19.390;2022-07-10T08:02:43;97759.95;;;17.82;59.39
50011;BME280;35899;50.352;19.390;2022-07-10T08:05:10;97759.85;;;18.42;59.32
50011;BME280;35899;50.352;19.390;2022-07-10T08:07:40;97757.14;;;18.93;58.60
50011;BME280;35899;50.352;19.390;2022-07-10T08:10:09;97759.91;;;19.20;58.11
50011;BME280;35899;50.352;19.390;2022-07-10T08:12:40;97757.77;;;19.07;55.54
50011;BME280;35899;50.352;19.390;2022-07-10T08:15:09;97764.54;;;18.85;55.03
50011;BME280;35899;50.352;19.390;2022-07-10T08:17:37;97768.75;;;18.58;55.27
50011;BME280;35899;50.352;19.390;2022-07-10T08:20:06;97772.02;;;18.39;55.62
50011;BME280;35899;50.352;19.390;2022-07-10T08:22:34;97764.09;;;18.23;55.44
50011;BME280;35899;50.352;19.390;2022-07-10T08:25:01;97773.05;;;18.04;54.85
50011;BME280;35899;50.352;19.390;2022-07-10T08:27:28;97769.11;;;18.04;54.02
50011;BME280;35899;50.352;19.390;2022-07-10T08:29:55;97771.30;;;18.21;54.26
50011;BME280;35899;50.352;19.390;2022-07-10T08:32:22;97776.47;;;18.47;53.51
50011;BME280;35899;50.352;19.390;2022-07-10T08:34:49;97769.30;;;18.82;53.45
50011;BME280;35899;50.352;19.390;2022-07-10T08:37:16;97764.03;;;19.10;52.55
50011;BME280;35899;50.352;19.390;2022-07-10T08:39:43;97762.70;;;19.19;51.69
50011;BME280;35899;50.352;19.390;2022-07-10T08:42:10;97772.09;;;19.21;51.44
50011;BME280;35899;50.352;19.390;2022-07-10T08:44:38;97780.64;;;19.19;51.38
50011;BME280;35899;50.352;19.390;2022-07-10T08:47:05;97766.64;;;19.19;50.85
50011;BME280;35899;50.352;19.390;2022-07-10T08:49:32;97776.34;;;19.34;50.31
50011;BME280;35899;50.352;19.390;2022-07-10T08:52:04;97767.91;;;19.56;50.71
50011;BME280;35899;50.352;19.390;2022-07-10T08:54:33;97759.98;;;19.72;50.74
50011;BME280;35899;50.352;19.390;2022-07-10T08:57:02;97774.79;;;19.61;50.16
50011;BME280;35899;50.352;19.390;2022-07-10T08:59:29;97767.32;;;19.25;49.64
50011;BME280;35899;50.352;19.390;2022-07-10T09:01:59;97765.53;;;18.97;49.98
50011;BME280;35899;50.352;19.390;2022-07-10T09:04:27;97768.77;;;18.74;50.33
50011;BME280;35899;50.352;19.390;2022-07-10T09:06:55;97772.88;;;18.60;50.31
50011;BME280;35899;50.352;19.390;2022-07-10T09:09:22;97772.34;;;18.44;50.48
50011;BME280;35899;50.352;19.390;2022-07-10T09:11:58;97766.92;;;18.38;51.03
50011;BME280;35899;50.352;19.390;2022-07-10T09:14:26;97774.10;;;18.31;51.67
50011;BME280;35899;50.352;19.390;2022-07-10T09:16:58;97774.87;;;18.07;52.08
50011;BME280;35899;50.352;19.390;2022-07-10T09:19:29;97781.45;;;17.81;52.71
50011;BME280;35899;50.352;19.390;2022-07-10T09:22:07;97775.16;;;17.66;53.29
50011;BME280;35899;50.352;19.390;2022-07-10T09:24:40;97769.59;;;17.38;53.27
50011;BME280;35899;50.352;19.390;2022-07-10T09:27:11;97778.48;;;17.19;53.60
50011;BME280;35899;50.352;19.390;2022-07-10T09:29:45;97775.14;;;17.13;53.95
50011;BME280;35899;50.352;19.390;2022-07-10T09:32:18;97783.92;;;17.26;54.66
50011;BME280;35899;50.352;19.390;2022-07-10T09:34:47;97776.09;;;17.61;54.42
50011;BME280;35899;50.352;19.390;2022-07-10T09:37:26;97771.38;;;17.98;54.43
50011;BME280;35899;50.352;19.390;2022-07-10T09:40:00;97770.70;;;18.43;54.13
50011;BME280;35899;50.352;19.390;2022-07-10T09:42:42;97772.91;;;19.05;53.78
50011;BME280;35899;50.352;19.390;2022-07-10T09:48:03;97779.20;;;20.24;50.87
50011;BME280;35899;50.352;19.390;2022-07-10T09:50:33;97772.20;;;20.67;50.36
50011;BME280;35899;50.352;19.390;2022-07-10T09:55:35;97777.98;;;20.66;47.47
50011;BME280;35899;50.352;19.390;2022-07-10T09:58:04;97779.81;;;20.62;47.37
50011;BME280;35899;50.352;19.390;2022-07-10T10:00:37;97774.77;;;20.79;47.91
50011;BME280;35899;50.352;19.390;2022-07-10T10:03:08;97772.84;;;21.11;48.08
50011;BME280;35899;50.352;19.390;2022-07-10T10:05:42;97764.98;;;21.41;47.35
50011;BME280;35899;50.352;19.390;2022-07-10T10:11:29;97779.17;;;21.06;45.72
50011;BME280;35899;50.352;19.390;2022-07-10T10:14:00;97785.52;;;20.11;45.57
50011;BME280;35899;50.352;19.390;2022-07-10T10:16:29;97794.53;;;19.69;46.55
50011;BME280;35899;50.352;19.390;2022-07-10T10:18:57;97787.14;;;19.60;47.24
50011;BME280;35899;50.352;19.390;2022-07-10T10:21:44;97788.98;;;19.51;47.55
50011;BME280;35899;50.352;19.390;2022-07-10T10:24:13;97783.25;;;19.31;47.34
50011;BME280;35899;50.352;19.390;2022-07-10T10:26:41;97791.48;;;19.20;47.36
50011;BME280;35899;50.352;19.390;2022-07-10T10:29:10;97788.19;;;19.02;47.22
50011;BME280;35899;50.352;19.390;2022-07-10T10:31:37;97792.33;;;19.00;47.98
50011;BME280;35899;50.352;19.390;2022-07-10T10:34:06;97792.65;;;19.13;47.80
50011;BME280;35899;50.352;19.390;2022-07-10T10:39:20;97784.03;;;19.52;47.66
50011;BME280;35899;50.352;19.390;2022-07-10T10:44:24;97786.05;;;20.38;46.57
50011;BME280;35899;50.352;19.390;2022-07-10T10:47:03;97776.53;;;21.25;45.77
50011;BME280;35899;50.352;19.390;2022-07-10T10:49:50;97772.23;;;21.92;45.15
50011;BME280;35899;50.352;19.390;2022-07-10T10:52:23;97776.98;;;22.07;43.31
50011;BME280;35899;50.352;19.390;2022-07-10T11:00:11;97762.65;;;21.76;43.73
50011;BME280;35899;50.352;19.390;2022-07-10T11:02:41;97763.62;;;22.04;43.25
50011;BME280;35899;50.352;19.390;2022-07-10T11:08:05;97754.23;;;23.07;42.34
50011;BME280;35899;50.352;19.390;2022-07-10T11:10:40;97756.44;;;23.60;41.15
50011;BME280;35899;50.352;19.390;2022-07-10T11:13:12;97748.94;;;24.36;40.49
50011;BME280;35899;50.352;19.390;2022-07-10T11:15:42;97748.84;;;26.16;38.90
50011;BME280;35899;50.352;19.390;2022-07-10T11:18:13;97747.28;;;27.04;38.69
50011;BME280;35899;50.352;19.390;2022-07-10T11:20:45;97748.72;;;26.75;36.52
50011;BME280;35899;50.352;19.390;2022-07-10T11:26:49;97750.70;;;25.30;36.73
50011;BME280;35899;50.352;19.390;2022-07-10T11:29:20;97753.95;;;24.48;37.52
50011;BME280;35899;50.352;19.390;2022-07-10T11:31:54;97756.22;;;23.72;38.14
50011;BME280;35899;50.352;19.390;2022-07-10T11:34:22;97757.76;;;23.14;39.19
50011;BME280;35899;50.352;19.390;2022-07-10T11:36:49;97755.63;;;22.71;39.93
50011;BME280;35899;50.352;19.390;2022-07-10T11:39:16;97768.64;;;22.14;40.35
50011;BME280;35899;50.352;19.390;2022-07-10T11:41:44;97760.27;;;21.36;40.54
50011;BME280;35899;50.352;19.390;2022-07-10T11:44:17;97775.86;;;20.66;41.20
50011;BME280;35899;50.352;19.390;2022-07-10T11:46:45;97773.70;;;19.99;42.22
50011;BME280;35899;50.352;19.390;2022-07-10T11:49:15;97780.94;;;19.41;42.78
50011;BME280;35899;50.352;19.390;2022-07-10T11:51:43;97780.16;;;18.87;43.71
50011;BME280;35899;50.352;19.390;2022-07-10T11:54:13;97792.70;;;18.46;45.11
50011;BME280;35899;50.352;19.390;2022-07-10T11:56:48;97782.56;;;18.05;46.22
50011;BME280;35899;50.352;19.390;2022-07-10T11:59:24;97787.28;;;17.67;46.98
50011;BME280;35899;50.352;19.390;2022-07-10T12:01:52;97780.77;;;17.45;47.69
50011;BME280;35899;50.352;19.390;2022-07-10T12:04:21;97790.11;;;17.43;48.36
50011;BME280;35899;50.352;19.390;2022-07-10T12:06:52;97780.02;;;17.56;48.46
50011;BME280;35899;50.352;19.390;2022-07-10T12:09:20;97778.09;;;17.97;47.71
50011;BME280;35899;50.352;19.390;2022-07-10T12:12:03;97782.70;;;18.58;47.43
50011;BME280;35899;50.352;19.390;2022-07-10T12:14:31;97786.22;;;19.04;46.60
50011;BME280;35899;50.352;19.390;2022-07-10T12:16:59;97786.65;;;19.65;46.06
50011;BME280;35899;50.352;19.390;2022-07-10T12:19:30;97778.02;;;20.62;44.78
50011;BME280;35899;50.352;19.390;2022-07-10T12:21:59;97775.81;;;21.31;43.22
50011;BME280;35899;50.352;19.390;2022-07-10T12:24:28;97786.48;;;22.12;42.60
50011;BME280;35899;50.352;19.390;2022-07-10T12:26:55;97776.09;;;23.27;40.71
50011;BME280;35899;50.352;19.390;2022-07-10T12:29:24;97771.06;;;24.08;40.18
50011;BME280;35899;50.352;19.390;2022-07-10T12:31:58;97766.89;;;26.01;37.13
50011;BME280;35899;50.352;19.390;2022-07-10T12:34:38;97765.14;;;26.10;37.41
50011;BME280;35899;50.352;19.390;2022-07-10T12:37:08;97771.03;;;25.27;35.64
50011;BME280;35899;50.352;19.390;2022-07-10T12:39:50;97771.58;;;24.63;36.03
50011;BME280;35899;50.352;19.390;2022-07-10T12:42:26;97769.95;;;24.37;36.76
50011;BME280;35899;50.352;19.390;2022-07-10T12:45:15;97768.95;;;24.45;36.63
50011;BME280;35899;50.352;19.390;2022-07-10T12:47:44;97760.02;;;25.66;34.96
50011;BME280;35899;50.352;19.390;2022-07-10T12:50:12;97763.59;;;25.69;34.42
50011;BME280;35899;50.352;19.390;2022-07-10T12:52:40;97763.56;;;25.33;34.90
50011;BME280;35899;50.352;19.390;2022-07-10T12:57:55;97762.15;;;25.73;33.82
50011;BME280;35899;50.352;19.390;2022-07-10T13:00:28;97767.09;;;25.56;33.31
50011;BME280;35899;50.352;19.390;2022-07-10T13:03:09;97770.29;;;25.85;32.96
50011;BME280;35899;50.352;19.390;2022-07-10T13:05:42;97773.80;;;25.79;33.49
50011;BME280;35899;50.352;19.390;2022-07-10T13:08:17;97757.19;;;25.61;32.86
50011;BME280;35899;50.352;19.390;2022-07-10T13:10:58;97753.20;;;25.61;32.99
50011;BME280;35899;50.352;19.390;2022-07-10T13:13:26;97760.59;;;25.39;32.57
50011;BME280;35899;50.352;19.390;2022-07-10T13:15:54;97755.70;;;26.14;32.64
50011;BME280;35899;50.352;19.390;2022-07-10T13:18:24;97753.20;;;26.20;32.11
50011;BME280;35899;50.352;19.390;2022-07-10T13:20:54;97753.59;;;26.94;31.31
50011;BME280;35899;50.352;19.390;2022-07-10T13:23:24;97754.30;;;27.85;30.83
50011;BME280;35899;50.352;19.390;2022-07-10T13:25:52;97760.61;;;28.40;31.56
50011;BME280;35899;50.352;19.390;2022-07-10T13:28:20;97760.95;;;28.83;31.05